Time;durP1;ratioP1;P1;durP2;ratioP2;P2;SDS_P1;SDS_P2;PMS_P1;PMS_P2;Temp;Humidity;BMP_temperature;BMP_pressure;BME280_temperature;BME280_humidity;BME280_pressure;Samples;Min_cycle;Max_cycle;Signal;HPM_P1;HPM_P2
2022/07/11 00:00:37;;;;;;;6.70;3.75;;;;;;;17.48;100.00;102317.69;5195987;28;20022;-73
2022/07/11 00:03:09;;;;;;;5.38;3.40;;;;;;;17.40;100.00;102319.38;5203652;28;20038;-73
2022/07/11 00:05:40;;;;;;;7.72;3.50;;;;;;;17.33;100.00;102310.31;5195747;28;20053;-74
2022/07/11 00:08:11;;;;;;;5.78;3.22;;;;;;;17.29;100.00;102316.84;5195065;28;20293;-73
2022/07/11 00:10:43;;;;;;;6.53;3.33;;;;;;;17.27;100.00;102319.63;5194039;28;20034;-73
2022/07/11 00:13:14;;;;;;;7.05;3.47;;;;;;;17.23;100.00;102319.06;5195106;28;20293;-73
2022/07/11 00:15:45;;;;;;;5.70;3.63;;;;;;;17.19;100.00;102317.66;5193259;28;20037;-73
2022/07/11 00:18:17;;;;;;;7.57;4.07;;;;;;;17.16;100.00;102315.31;5195425;28;20019;-73
2022/07/11 00:20:48;;;;;;;5.90;3.88;;;;;;;17.13;100.00;102312.94;5195106;28;20044;-73
2022/07/11 00:23:19;;;;;;;6.18;3.58;;;;;;;17.04;100.00;102303.16;5195402;28;20468;-74
2022/07/11 00:25:50;;;;;;;7.43;4.65;;;;;;;17.07;100.00;102302.88;5194858;28;20444;-73
2022/07/11 00:28:22;;;;;;;7.15;3.83;;;;;;;17.02;100.00;102307.75;5195446;28;20057;-73
2022/07/11 00:30:53;;;;;;;7.55;3.67;;;;;;;17.02;100.00;102302.47;5195243;28;20420;-73
2022/07/11 00:33:25;;;;;;;8.70;4.20;;;;;;;16.98;100.00;102293.97;5195164;28;20026;-73
2022/07/11 00:35:56;;;;;;;7.20;3.95;;;;;;;16.93;100.00;102295.31;5194234;28;20030;-74
2022/07/11 00:38:27;;;;;;;8.15;3.90;;;;;;;16.82;100.00;102287.50;5195117;28;20032;-73
2022/07/11 00:40:58;;;;;;;5.55;3.67;;;;;;;16.91;100.00;102297.28;5195273;28;20048;-74
2022/07/11 00:43:37;;;;;;;7.00;4.22;;;;;;;16.88;100.00;102294.91;5194276;28;20114;-73
2022/07/11 00:46:09;;;;;;;6.15;4.18;;;;;;;16.83;100.00;102297.97;5194969;28;20150;-73
2022/07/11 00:48:40;;;;;;;8.07;5.00;;;;;;;16.76;100.00;102294.19;5194895;28;20032;-74
2022/07/11 00:51:12;;;;;;;8.35;4.75;;;;;;;16.82;100.00;102298.94;5194243;28;20109;-74
2022/07/11 00:53:44;;;;;;;7.07;4.45;;;;;;;16.76;100.00;102302.13;5194864;28;20026;-73
2022/07/11 00:56:16;;;;;;;10.00;4.72;;;;;;;16.74;100.00;102293.47;5194774;28;20034;-74
2022/07/11 00:58:48;;;;;;;7.35;4.45;;;;;;;16.66;100.00;102294.09;5195160;28;20396;-74
2022/07/11 01:01:20;;;;;;;8.00;4.32;;;;;;;16.65;100.00;102286.31;5194127;28;20038;-73
2022/07/11 01:03:52;;;;;;;8.65;4.57;;;;;;;16.56;100.00;102279.19;5194973;28;20081;-73
2022/07/11 01:06:23;;;;;;;6.60;4.88;;;;;;;16.55;100.00;102286.28;5193714;28;20026;-73
2022/07/11 01:08:55;;;;;;;8.82;4.80;;;;;;;16.60;100.00;102283.25;5194231;28;20083;-74
2022/07/11 01:11:26;;;;;;;7.32;4.35;;;;;;;16.54;100.00;102287.25;5195207;28;20026;-73
2022/07/11 01:13:58;;;;;;;8.38;4.53;;;;;;;16.57;100.00;102294.94;5194221;28;20104;-74
2022/07/11 01:16:30;;;;;;;7.03;4.40;;;;;;;16.54;100.00;102289.91;5193871;28;20037;-73
2022/07/11 01:19:01;;;;;;;7.53;4.63;;;;;;;16.46;100.00;102293.22;5193029;28;20026;-74
2022/07/11 01:21:38;;;;;;;7.70;4.50;;;;;;;16.50;100.00;102293.78;5194724;28;20029;-73
2022/07/11 01:24:10;;;;;;;7.75;4.55;;;;;;;16.46;100.00;102282.63;5194093;28;20038;-74
2022/07/11 01:26:43;;;;;;;6.88;5.20;;;;;;;16.39;100.00;102286.78;5194300;28;20035;-73
2022/07/11 01:29:14;;;;;;;7.55;4.65;;;;;;;16.45;100.00;102285.41;5192907;28;20026;-73
2022/07/11 01:31:45;;;;;;;8.60;4.93;;;;;;;16.38;100.00;102290.41;5194397;28;20038;-73
2022/07/11 01:34:17;;;;;;;6.63;4.75;;;;;;;16.36;100.00;102286.19;5193892;28;20480;-73
2022/07/11 01:36:48;;;;;;;8.50;4.93;;;;;;;16.31;100.00;102281.31;5194497;28;20037;-73
2022/07/11 01:39:19;;;;;;;6.35;4.78;;;;;;;16.34;100.00;102286.34;5194184;28;20072;-74
2022/07/11 01:41:50;;;;;;;7.55;4.70;;;;;;;16.28;100.00;102278.91;5193410;28;20026;-74
2022/07/11 01:44:22;;;;;;;6.70;4.67;;;;;;;16.32;100.00;102279.50;5194266;28;20076;-73
2022/07/11 01:46:53;;;;;;;7.18;4.82;;;;;;;16.28;100.00;102278.91;5193450;28;20304;-73
2022/07/11 01:49:29;;;;;;;7.00;5.15;;;;;;;16.31;100.00;102289.25;5193108;28;20019;-73
2022/07/11 01:52:00;;;;;;;8.55;5.30;;;;;;;16.25;100.00;102289.75;5193510;28;20117;-73
2022/07/11 01:54:31;;;;;;;6.15;4.78;;;;;;;16.14;100.00;102292.47;5192732;28;20032;-73
2022/07/11 01:57:03;;;;;;;7.15;5.38;;;;;;;16.12;100.00;102283.88;5193561;28;20038;-73
2022/07/11 01:59:34;;;;;;;7.60;5.50;;;;;;;16.12;100.00;102297.09;5193668;28;20112;-73
2022/07/11 02:02:06;;;;;;;9.20;5.47;;;;;;;16.03;100.00;102301.34;5194293;28;20042;-73
2022/07/11 02:04:37;;;;;;;7.93;5.38;;;;;;;16.03;100.00;102299.53;5193721;28;20023;-73
2022/07/11 02:07:11;;;;;;;8.43;4.47;;;;;;;16.00;100.00;102302.44;5193311;28;20045;-73
2022/07/11 02:09:42;;;;;;;6.30;4.63;;;;;;;15.97;100.00;102299.22;5193545;28;20026;-73
2022/07/11 02:12:13;;;;;;;7.82;5.63;;;;;;;15.94;100.00;102294.19;5193721;28;20037;-73
2022/07/11 02:14:45;;;;;;;8.38;5.88;;;;;;;15.97;100.00;102297.41;5194199;28;20114;-73
2022/07/11 02:17:16;;;;;;;7.13;5.45;;;;;;;15.92;100.00;102285.56;5192825;28;20045;-73
2022/07/11 02:19:48;;;;;;;6.90;5.53;;;;;;;15.95;100.00;102287.97;5194114;28;20488;-73
2022/07/11 02:22:19;;;;;;;7.18;5.38;;;;;;;15.92;100.00;102296.97;5193893;28;20487;-73
2022/07/11 02:24:50;;;;;;;9.90;5.70;;;;;;;15.94;100.00;102295.03;5194311;28;20030;-73
2022/07/11 02:27:22;;;;;;;7.13;5.80;;;;;;;15.92;100.00;102294.34;5196885;28;20065;-73
2022/07/11 02:29:53;;;;;;;7.72;5.55;;;;;;;15.89;100.00;102286.66;5198143;28;20084;-73
2022/07/11 02:32:24;;;;;;;6.63;5.85;;;;;;;15.92;100.00;102289.03;5197468;28;20038;-73
2022/07/11 02:34:55;;;;;;;10.52;6.57;;;;;;;15.86;100.00;102281.63;5197059;28;20038;-73
2022/07/11 02:37:27;;;;;;;8.02;5.78;;;;;;;15.89;100.00;102285.81;5197431;28;20141;-73
2022/07/11 02:39:58;;;;;;;7.80;5.70;;;;;;;15.87;100.00;102285.09;5197479;28;20501;-73
2022/07/11 02:42:29;;;;;;;7.22;5.80;;;;;;;15.89;100.00;102291.09;5204849;28;20073;-73
2022/07/11 02:45:02;;;;;;;8.88;6.05;;;;;;;15.89;100.00;102291.09;5195313;28;20053;-73
2022/07/11 02:47:39;;;;;;;9.30;6.93;;;;;;;15.90;100.00;102288.31;5196186;28;20121;-73
2022/07/11 02:50:12;;;;;;;8.55;6.97;;;;;;;15.97;100.00;102293.94;5197063;28;20721;-73
2022/07/11 02:52:43;;;;;;;;;;;;;;;16.56;100.00;102295.06;5197746;28;20065;-73
2022/07/11 02:55:15;;;;;;;11.15;6.60;;;;;;;16.23;100.00;102287.25;5197082;28;20019;-73
2022/07/11 02:57:46;;;;;;;10.05;6.95;;;;;;;16.05;100.00;102289.66;5195792;28;20089;-73
2022/07/11 03:00:18;;;;;;;10.13;6.85;;;;;;;16.01;100.00;102287.41;5196264;28;20030;-73
2022/07/11 03:02:49;;;;;;;9.70;6.53;;;;;;;16.10;100.00;102291.94;5195997;28;20514;-73
2022/07/11 03:05:21;;;;;;;8.88;6.43;;;;;;;16.07;100.00;102286.91;5206462;28;20026;-72
2022/07/11 03:07:52;;;;;;;10.25;6.35;;;;;;;16.14;100.00;102279.25;5196737;28;20019;-73
2022/07/11 03:10:24;;;;;;;7.88;6.10;;;;;;;16.08;100.00;102285.94;5196314;28;20029;-73
2022/07/11 03:12:56;;;;;;;9.30;6.45;;;;;;;16.13;100.00;102285.53;5197506;28;20077;-73
2022/07/11 03:15:27;;;;;;;9.52;6.53;;;;;;;16.18;100.00;102289.47;5195535;28;20045;-73
2022/07/11 03:17:58;;;;;;;10.88;7.13;;;;;;;16.16;100.00;102290.56;5195367;28;20462;-73
2022/07/11 03:20:29;;;;;;;9.00;7.45;;;;;;;16.10;100.00;102294.59;5196928;28;20400;-73
2022/07/11 03:23:01;;;;;;;12.35;7.38;;;;;;;16.14;100.00;102292.47;5196988;28;20052;-73
2022/07/11 03:25:32;;;;;;;9.05;7.00;;;;;;;16.16;100.00;102287.91;5196616;28;20484;-73
2022/07/11 03:28:04;;;;;;;8.85;7.30;;;;;;;16.12;100.00;102297.91;5195705;28;20391;-73
2022/07/11 03:30:35;;;;;;;8.50;7.18;;;;;;;16.20;100.00;102298.09;5195450;28;20771;-73
2022/07/11 03:33:06;;;;;;;9.10;6.57;;;;;;;16.27;100.00;102301.91;5196444;28;20455;-72
2022/07/11 03:35:40;;;;;;;10.57;6.88;;;;;;;16.29;100.00;102299.13;5195192;28;20808;-73
2022/07/11 03:38:12;;;;;;;9.73;7.63;;;;;;;16.30;100.00;102309.56;5196330;28;20383;-73
2022/07/11 03:40:43;;;;;;;11.18;7.57;;;;;;;16.23;100.00;102297.84;5196581;28;20038;-73
2022/07/11 03:43:15;;;;;;;15.52;8.20;;;;;;;16.34;100.00;102298.72;5196033;28;20026;-73
2022/07/11 03:45:46;;;;;;;13.15;8.45;;;;;;;16.32;100.00;102300.66;5196137;28;20193;-73
2022/07/11 03:48:18;;;;;;;9.52;7.35;;;;;;;16.40;100.00;102298.19;5195842;28;20030;-73
2022/07/11 03:50:49;;;;;;;11.90;8.05;;;;;;;16.38;100.00;102300.97;5205720;28;20034;-73
2022/07/11 03:53:21;;;;;;;10.98;8.10;;;;;;;16.35;100.00;102297.75;5194526;28;20029;-72
2022/07/11 03:55:52;;;;;;;10.68;7.10;;;;;;;16.39;100.00;102302.63;5196167;28;20113;-73
2022/07/11 03:58:23;;;;;;;10.25;8.23;;;;;;;16.42;100.00;102298.91;5196057;28;20022;-73
2022/07/11 04:00:54;;;;;;;13.32;8.23;;;;;;;16.48;100.00;102293.09;5193905;28;20411;-73
2022/07/11 04:03:26;;;;;;;11.45;7.97;;;;;;;16.47;100.00;102294.03;5194939;28;20036;-72
2022/07/11 04:05:57;;;;;;;12.27;7.72;;;;;;;16.51;100.00;102292.81;5196533;28;20085;-73
2022/07/11 04:08:28;;;;;;;12.27;7.80;;;;;;;16.52;100.00;102305.06;5195779;28;20034;-73
2022/07/11 04:10:59;;;;;;;11.43;7.65;;;;;;;16.57;100.00;102296.75;5195566;28;20030;-73
2022/07/11 04:13:31;;;;;;;13.63;7.82;;;;;;;16.56;100.00;102298.53;5204171;28;20034;-73
2022/07/11 04:16:03;;;;;;;11.07;7.93;;;;;;;16.53;100.00;102301.47;5194278;28;20033;-73
2022/07/11 04:18:34;;;;;;;10.07;7.47;;;;;;;16.52;100.00;102291.84;5195591;28;20101;-72
2022/07/11 04:21:05;;;;;;;12.00;7.38;;;;;;;16.66;100.00;102283.53;5192729;28;20035;-71
2022/07/11 04:23:37;;;;;;;10.32;7.65;;;;;;;16.68;100.00;102294.81;5194879;28;20037;-71
2022/07/11 04:26:08;;;;;;;10.55;7.10;;;;;;;16.66;100.00;102283.53;5196108;28;20085;-71
2022/07/11 04:28:39;;;;;;;10.63;7.15;;;;;;;16.69;100.00;102293.84;5195457;28;20026;-71
2022/07/11 04:31:11;;;;;;;13.15;7.30;;;;;;;16.71;100.00;102296.38;5195085;28;20525;-70
2022/07/11 04:33:42;;;;;;;7.90;6.53;;;;;;;16.79;100.00;102291.28;5195507;28;20073;-71
2022/07/11 04:36:13;;;;;;;12.25;7.70;;;;;;;16.74;100.00;102293.47;5194428;28;20054;-71
2022/07/11 04:38:44;;;;;;;10.60;7.05;;;;;;;16.85;100.00;102292.53;5194096;28;20085;-70
2022/07/11 04:41:16;;;;;;;11.27;7.15;;;;;;;16.78;100.00;102292.22;5195250;28;20018;-70
2022/07/11 04:43:47;;;;;;;10.27;7.47;;;;;;;16.85;100.00;102303.94;5195427;28;20036;-71
2022/07/11 04:46:18;;;;;;;14.70;8.07;;;;;;;16.85;100.00;102298.66;5192896;28;20022;-71
2022/07/11 04:48:49;;;;;;;11.98;7.10;;;;;;;16.84;100.00;102304.91;5193664;28;20026;-71
2022/07/11 04:51:21;;;;;;;11.10;7.18;;;;;;;16.87;100.00;102306.47;5194915;28;20519;-71
2022/07/11 04:53:52;;;;;;;8.63;6.78;;;;;;;16.84;100.00;102312.88;5194714;28;20038;-71
2022/07/11 04:56:24;;;;;;;8.85;6.85;;;;;;;16.91;100.00;102314.00;5194921;28;20018;-70
2022/07/11 04:58:55;;;;;;;11.40;7.22;;;;;;;16.84;100.00;102312.03;5194146;28;20033;-71
2022/07/11 05:01:28;;;;;;;13.73;7.00;;;;;;;16.85;100.00;102317.19;5195043;28;20488;-71
2022/07/11 05:04:00;;;;;;;9.13;7.03;;;;;;;16.87;100.00;102317.06;5194309;28;20033;-71
2022/07/11 05:06:32;;;;;;;9.82;6.63;;;;;;;16.84;100.00;102314.69;5193019;28;20395;-71
2022/07/11 05:09:04;;;;;;;8.98;6.90;;;;;;;16.92;100.00;102320.97;5193720;28;20447;-70
2022/07/11 05:11:35;;;;;;;9.03;6.50;;;;;;;16.96;100.00;102324.19;5194596;28;20112;-71
2022/07/11 05:14:07;;;;;;;10.20;6.53;;;;;;;16.97;100.00;102329.34;5193338;28;20105;-71
2022/07/11 05:16:38;;;;;;;11.32;6.85;;;;;;;16.99;100.00;102326.56;5191398;28;20038;-71
2022/07/11 05:19:09;;;;;;;11.57;6.78;;;;;;;17.06;100.00;102330.34;5194551;28;20029;-71
2022/07/11 05:21:41;;;;;;;9.02;6.10;;;;;;;17.03;100.00;102322.66;5194720;28;20029;-71
2022/07/11 05:24:12;;;;;;;9.82;5.70;;;;;;;17.09;100.00;102329.25;5193058;28;20019;-71
2022/07/11 05:26:44;;;;;;;11.80;6.47;;;;;;;17.09;100.00;102331.88;5195456;28;20126;-71
2022/07/11 05:29:15;;;;;;;10.40;6.33;;;;;;;17.15;100.00;102324.22;5194428;28;20110;-72
2022/07/11 05:31:50;;;;;;;7.18;5.72;;;;;;;17.21;100.00;102331.63;5194823;28;20146;-71
2022/07/11 05:34:21;;;;;;;7.78;6.07;;;;;;;17.21;100.00;102334.28;5194563;28;20086;-71
2022/07/11 05:36:53;;;;;;;9.68;5.95;;;;;;;17.23;100.00;102334.13;5194307;28;20034;-71
2022/07/11 05:39:24;;;;;;;8.63;5.78;;;;;;;17.27;100.00;102332.88;5192730;28;20490;-71
2022/07/11 05:41:56;;;;;;;7.68;5.97;;;;;;;17.28;100.00;102339.88;5193588;28;20030;-71
2022/07/11 05:44:27;;;;;;;10.00;6.55;;;;;;;17.32;100.00;102332.47;5194638;28;20027;-71
2022/07/11 05:47:02;;;;;;;9.30;5.97;;;;;;;17.39;100.00;102336.25;5194639;28;20019;-70
2022/07/11 05:49:34;;;;;;;7.85;5.93;;;;;;;17.35;100.00;102337.47;5193714;28;20030;-71
2022/07/11 05:52:05;;;;;;;12.50;6.65;;;;;;;17.43;100.00;102335.00;5194595;28;20542;-71
2022/07/11 05:54:37;;;;;;;10.40;5.93;;;;;;;17.43;100.00;102337.66;5194506;28;20034;-71
2022/07/11 05:57:08;;;;;;;8.88;6.45;;;;;;;17.50;100.00;102344.03;5193211;28;20065;-70
2022/07/11 05:59:39;;;;;;;9.52;6.82;;;;;;;17.53;100.00;102343.78;5196755;28;20034;-71
2022/07/11 06:02:11;;;;;;;10.73;6.97;;;;;;;17.55;100.00;102330.41;5198085;28;20026;-70
2022/07/11 06:04:42;;;;;;;10.00;6.82;;;;;;;17.54;100.00;102336.66;5198339;28;20025;-71
2022/07/11 06:08:40;;;;;;;10.65;6.55;;;;;;;17.55;100.00;102341.84;5197460;28;20121;-71
2022/07/11 06:10:05;;;;;;;5.85;5.25;;;;;;;17.53;100.00;102346.41;5194913;28;20606;-71
2022/07/11 06:12:36;;;;;;;8.38;5.70;;;;;;;17.52;100.00;102344.75;5211585;28;20042;-71
2022/07/11 06:15:08;;;;;;;11.60;5.75;;;;;;;17.58;100.00;102349.50;5196100;28;20559;-71
2022/07/11 06:17:39;;;;;;;9.45;6.10;;;;;;;17.59;100.00;102348.53;5198445;28;20391;-71
2022/07/11 06:20:11;;;;;;;10.00;6.03;;;;;;;17.64;100.00;102356.06;5197404;28;20026;-71
2022/07/11 06:22:43;;;;;;;8.27;6.35;;;;;;;17.64;100.00;102364.00;5197299;28;20042;-72
2022/07/11 06:25:14;;;;;;;8.95;5.45;;;;;;;17.66;100.00;102354.09;5198222;28;20022;-71
2022/07/11 06:27:45;;;;;;;11.98;6.43;;;;;;;17.60;100.00;102346.72;5197806;28;20018;-71
2022/07/11 06:30:17;;;;;;;9.20;6.63;;;;;;;17.68;100.00;102358.28;5196849;28;20534;-72
2022/07/11 06:32:48;;;;;;;10.65;7.25;;;;;;;17.63;100.00;102352.56;5198768;28;20342;-72
2022/07/11 06:35:20;;;;;;;8.90;6.93;;;;;;;17.62;100.00;102350.06;5197717;28;20037;-72
2022/07/11 06:37:51;;;;;;;8.70;7.70;;;;;;;17.62;100.00;102355.38;5197308;28;20039;-72
2022/07/11 06:40:23;;;;;;;9.45;6.82;;;;;;;17.63;100.00;102359.69;5211181;28;20027;-72
2022/07/11 06:42:54;;;;;;;13.77;6.70;;;;;;;17.58;100.00;102346.84;5197254;28;20041;-72
2022/07/11 06:45:26;;;;;;;8.13;7.10;;;;;;;17.67;100.00;102359.25;5196864;28;20181;-72
2022/07/11 06:47:57;;;;;;;12.15;7.35;;;;;;;17.65;100.00;102353.28;5197155;28;20077;-72
2022/07/11 06:50:29;;;;;;;8.57;7.30;;;;;;;17.71;100.00;102362.47;5197902;28;20034;-72
2022/07/11 06:53:00;;;;;;;12.95;7.05;;;;;;;17.77;100.00;102361.09;5197607;28;20363;-72
2022/07/11 06:55:32;;;;;;;9.95;6.30;;;;;;;17.83;100.00;102353.41;5197598;28;20026;-72
2022/07/11 06:58:05;;;;;;;7.85;5.82;;;;;;;17.83;100.00;102355.25;5196264;28;20026;-72
2022/07/11 07:00:36;;;;;;;7.57;5.70;;;;;;;17.95;100.00;102354.94;5197036;28;20022;-72
2022/07/11 07:03:08;;;;;;;9.38;6.07;;;;;;;17.98;100.00;102357.31;5196450;28;20026;-72
2022/07/11 07:05:39;;;;;;;9.38;5.70;;;;;;;18.01;100.00;102361.50;5196400;28;20479;-72
2022/07/11 07:08:10;;;;;;;9.00;5.88;;;;;;;18.04;100.00;102357.75;5197016;28;20026;-72
2022/07/11 07:10:42;;;;;;;7.68;5.32;;;;;;;18.11;100.00;102357.03;5196746;28;20409;-72
2022/07/11 07:13:14;;;;;;;8.50;5.88;;;;;;;18.13;100.00;102349.75;5197050;28;20064;-72
2022/07/11 07:15:45;;;;;;;9.88;5.80;;;;;;;18.21;100.00;102341.91;5201628;28;20587;-72
2022/07/11 07:18:16;;;;;;;7.03;5.40;;;;;;;18.31;100.00;102347.19;5196078;28;20022;-72
2022/07/11 07:20:48;;;;;;;8.35;6.18;;;;;;;18.33;100.00;102345.22;5195864;28;20078;-72
2022/07/11 07:23:19;;;;;;;9.23;6.28;;;;;;;18.46;100.00;102339.63;5197328;28;20026;-72
2022/07/11 07:25:51;;;;;;;10.30;6.60;;;;;;;18.53;100.00;102350.50;5196098;28;20080;-72
2022/07/11 07:28:22;;;;;;;9.52;6.15;;;;;;;18.62;100.00;102344.28;5196433;28;20105;-72
2022/07/11 07:30:54;;;;;;;7.83;5.77;;;;;;;18.61;100.00;102340.81;5196737;28;20138;-72
2022/07/11 07:33:25;;;;;;;7.67;5.73;;;;;;;18.59;100.00;102340.09;5194660;28;20197;-72
2022/07/11 07:35:56;;;;;;;8.75;5.32;;;;;;;18.81;100.00;102343.41;5196883;28;20407;-72
2022/07/11 07:38:28;;;;;;;6.93;5.93;;;;;;;18.95;100.00;102342.91;5196725;28;20022;-72
2022/07/11 07:40:59;;;;;;;8.60;5.87;;;;;;;18.98;100.00;102342.63;5195876;28;20083;-72
2022/07/11 07:43:30;;;;;;;9.25;6.88;;;;;;;18.98;100.00;102345.28;5196656;28;20381;-72
2022/07/11 07:46:02;;;;;;;5.90;5.28;;;;;;;19.16;100.00;102348.78;5196574;28;20007;-72
2022/07/11 07:48:33;;;;;;;6.07;4.78;;;;;;;19.27;100.00;102349.56;5196313;28;20034;-72
2022/07/11 07:51:05;;;;;;;5.73;5.00;;;;;;;19.21;100.00;102356.31;5193978;28;20065;-72
2022/07/11 07:53:36;;;;;;;8.83;4.97;;;;;;;19.34;100.00;102356.78;5195488;28;20030;-72
2022/07/11 07:56:08;;;;;;;6.28;5.10;;;;;;;19.38;100.00;102357.31;5195980;28;20033;-72
2022/07/11 07:58:39;;;;;;;7.77;5.93;;;;;;;19.34;100.00;102358.59;5196007;28;20045;-72
2022/07/11 08:04:04;;;;;;;7.25;6.03;;;;;;;19.61;100.00;102363.00;5196423;28;20030;-72
2022/07/11 08:06:36;;;;;;;6.60;5.90;;;;;;;19.60;100.00;102359.50;5195234;28;20116;-72
2022/07/11 08:09:08;;;;;;;7.67;5.70;;;;;;;19.51;100.00;102368.41;5194837;28;20030;-71
2022/07/11 08:11:39;;;;;;;7.10;5.57;;;;;;;19.64;100.00;102363.56;5196224;28;20028;-72
2022/07/11 08:14:11;;;;;;;7.57;5.83;;;;;;;19.66;100.00;102358.94;5195944;28;20026;-72
2022/07/11 08:16:43;;;;;;;10.90;6.83;;;;;;;19.65;100.00;102357.25;5193283;28;20034;-71
2022/07/11 08:19:14;;;;;;;7.53;6.70;;;;;;;19.71;100.00;102360.31;5194840;28;20546;-71
2022/07/11 08:21:46;;;;;;;9.00;6.10;;;;;;;19.80;100.00;102362.88;5194544;28;20030;-71
2022/07/11 08:24:17;;;;;;;8.00;6.30;;;;;;;19.72;100.00;102359.31;5194557;28;20060;-71
2022/07/11 08:26:49;;;;;;;7.87;5.33;;;;;;;19.70;100.00;102362.13;5195516;28;20038;-71
2022/07/11 08:29:20;;;;;;;8.80;6.23;;;;;;;19.72;100.00;102364.63;5195714;28;20479;-71
2022/07/11 08:31:51;;;;;;;8.07;6.73;;;;;;;19.73;100.00;102367.13;5195311;28;20053;-71
2022/07/11 08:34:23;;;;;;;6.67;5.57;;;;;;;19.77;100.00;102365.81;5194622;28;20384;-71
2022/07/11 08:36:54;;;;;;;6.80;5.37;;;;;;;19.84;100.00;102372.19;5195965;28;20041;-72
2022/07/11 08:39:25;;;;;;;8.40;5.97;;;;;;;19.96;100.00;102367.47;5194852;28;20447;-71
2022/07/11 08:41:57;;;;;;;7.93;6.63;;;;;;;19.92;100.00;102366.13;5195018;28;20063;-72
2022/07/11 08:44:28;;;;;;;7.73;6.10;;;;;;;19.99;100.00;102369.81;5202412;28;20014;-71
2022/07/11 08:46:59;;;;;;;7.33;5.97;;;;;;;19.99;100.00;102359.19;5195947;28;20026;-72
2022/07/11 08:49:31;;;;;;;7.27;6.57;;;;;;;20.16;100.00;102368.97;5195513;28;20022;-71
2022/07/11 08:52:02;;;;;;;7.00;6.30;;;;;;;20.18;100.00;102363.47;5194954;28;20022;-71
2022/07/11 08:54:35;;;;;;;8.67;7.57;;;;;;;20.13;100.00;102363.13;5195006;28;20033;-71
2022/07/11 08:57:06;;;;;;;8.37;6.93;;;;;;;20.06;100.00;102370.88;5195491;28;20018;-72
2022/07/11 08:59:41;;;;;;;8.63;7.50;;;;;;;20.17;100.00;102370.63;5194512;28;20316;-72
2022/07/11 09:02:13;;;;;;;9.63;7.70;;;;;;;20.11;100.00;102367.75;5195668;28;20028;-71
2022/07/11 09:04:44;;;;;;;10.93;7.33;;;;;;;20.20;100.00;102366.00;5195247;28;20026;-71
2022/07/11 09:07:15;;;;;;;7.87;7.10;;;;;;;20.26;100.00;102362.69;5194856;28;20030;-71
2022/07/11 09:09:47;;;;;;;11.93;7.67;;;;;;;20.39;100.00;102350.66;5193559;28;20048;-71
2022/07/11 09:12:19;;;;;;;8.47;7.50;;;;;;;20.53;100.00;102351.94;5195202;28;20053;-71
2022/07/11 09:14:54;;;;;;;7.85;6.60;;;;;;;20.72;100.00;102355.31;5193845;28;20023;-71
2022/07/11 09:17:27;;;;;;;11.32;7.97;;;;;;;20.87;100.00;102365.22;5194197;28;20030;-71
2022/07/11 09:19:59;;;;;;;11.13;8.15;;;;;;;20.91;100.00;102363.06;5202033;28;20019;-71
2022/07/11 09:25:31;;;;;;;8.13;7.30;;;;;;;21.87;100.00;102354.56;5194316;28;20034;-71
2022/07/11 09:28:05;;;;;;;9.18;7.18;;;;;;;21.78;100.00;102352.88;5204865;28;20022;-72
2022/07/11 09:30:43;;;;;;;9.52;7.93;;;;;;;21.84;100.00;102338.88;5194456;28;20039;-72
2022/07/11 09:33:15;;;;;;;10.75;8.13;;;;;;;21.83;100.00;102345.22;5194497;28;20506;-71
2022/07/11 09:35:46;;;;;;;;;;;;;;;22.52;100.00;102346.44;5194209;28;20472;-72
2022/07/11 09:38:21;;;;;;;9.97;6.80;;;;;;;22.11;100.00;102335.84;5194768;28;19993;-71
2022/07/11 09:40:52;;;;;;;9.32;7.40;;;;;;;22.28;100.00;102343.88;5194211;28;20277;-72
2022/07/11 09:43:25;;;;;;;9.20;8.10;;;;;;;22.15;100.00;102344.38;5193553;28;20018;-71
2022/07/11 09:46:06;;;;;;;9.65;8.00;;;;;;;22.41;100.00;102340.66;5195381;28;20028;-71
2022/07/11 09:48:37;;;;;;;9.60;8.13;;;;;;;22.05;100.00;102351.72;5194358;28;20018;-72
2022/07/11 09:51:19;;;;;;;9.57;7.30;;;;;;;22.24;100.00;102340.69;5193735;28;20124;-71
2022/07/11 09:53:57;;;;;;;9.53;6.47;;;;;;;22.09;100.00;102348.53;5194287;28;20034;-71
2022/07/11 09:56:38;;;;;;;8.27;6.30;;;;;;;22.00;100.00;102349.53;5194464;28;20816;-72
2022/07/11 09:59:11;;;;;;;8.20;6.40;;;;;;;21.81;100.00;102341.88;5192874;28;20492;-72
2022/07/11 10:01:43;;;;;;;8.10;6.88;;;;;;;21.81;100.00;102344.56;5194524;28;20069;-72
2022/07/11 10:04:14;;;;;;;8.52;6.90;;;;;;;21.90;100.00;102343.56;5194818;28;20053;-72
2022/07/11 10:06:45;;;;;;;7.17;6.17;;;;;;;21.82;100.00;102347.06;5193680;28;20168;-71
2022/07/11 10:09:17;;;;;;;8.57;7.17;;;;;;;21.86;100.00;102352.91;5194170;28;20086;-72
2022/07/11 10:11:48;;;;;;;9.60;6.97;;;;;;;21.83;100.00;102342.56;5194314;28;20030;-71
2022/07/11 10:14:20;;;;;;;8.13;7.33;;;;;;;21.96;100.00;102353.53;5205199;28;20458;-72
2022/07/11 10:17:15;;;;;;;9.37;7.47;;;;;;;21.98;100.00;102351.56;5192530;28;20459;-72
2022/07/11 10:20:12;;;;;;;8.07;6.85;;;;;;;22.23;100.00;102354.19;5194204;28;20488;-72
2022/07/11 10:22:53;;;;;;;10.77;7.85;;;;;;;22.20;100.00;102343.84;5193106;28;20112;-71
2022/07/11 10:25:40;;;;;;;8.30;7.40;;;;;;;22.21;100.00;102349.03;5194060;28;20479;-71
2022/07/11 10:28:26;;;;;;;10.63;7.22;;;;;;;22.38;100.00;102352.50;5193743;28;20515;-71
2022/07/11 10:31:01;;;;;;;8.10;6.97;;;;;;;22.32;100.00;102350.53;5192580;28;20166;-72
2022/07/11 10:33:32;;;;;;;7.85;6.57;;;;;;;22.21;100.00;102357.06;5191518;28;20030;-72
2022/07/11 10:36:03;;;;;;;9.43;7.13;;;;;;;22.37;100.00;102361.50;5192474;28;20019;-72
2022/07/11 10:38:35;;;;;;;8.10;6.57;;;;;;;22.41;100.00;102357.50;5193750;28;20034;-72
2022/07/11 10:41:20;;;;;;;8.48;6.97;;;;;;;22.77;100.00;102357.88;5193245;28;20025;-72
2022/07/11 10:43:52;;;;;;;9.40;7.55;;;;;;;22.71;100.00;102358.56;5193876;28;20042;-72
2022/07/11 10:46:26;;;;;;;8.00;7.13;;;;;;;22.79;100.00;102365.69;5190834;28;20153;-72
2022/07/11 10:49:15;;;;;;;8.07;6.90;;;;;;;22.83;100.00;102364.34;5197126;28;20025;-72
2022/07/11 10:51:49;;;;;;;8.75;6.97;;;;;;;22.75;100.00;102361.72;5197488;28;20022;-72
2022/07/11 10:54:44;;;;;;;7.28;6.57;;;;;;;23.05;100.00;102365.44;5196495;28;20034;-72
2022/07/11 10:57:40;;;;;;;8.77;6.57;;;;;;;23.03;100.00;102362.09;5197693;28;20018;-72
2022/07/11 11:00:14;;;;;;;7.38;6.30;;;;;;;22.64;100.00;102368.28;5197198;28;20148;-72
2022/07/11 11:03:08;;;;;;;8.48;5.80;;;;;;;22.89;100.00;102362.84;5197665;28;20402;-72
2022/07/11 11:05:43;;;;;;;7.43;5.55;;;;;;;22.58;100.00;102361.78;5197818;28;20425;-72
2022/07/11 11:08:35;;;;;;;7.38;4.90;;;;;;;22.71;100.00;102358.56;5196537;28;20357;-72
2022/07/11 11:11:22;;;;;;;6.55;4.80;;;;;;;22.70;100.00;102369.44;5197223;28;20479;-72
2022/07/11 11:14:15;;;;;;;4.78;4.35;;;;;;;22.68;100.00;102368.75;5196447;28;20030;-72
2022/07/11 11:16:47;;;;;;;7.05;4.38;;;;;;;22.32;100.00;102364.69;5194065;28;20054;-72
2022/07/11 11:19:55;;;;;;;4.63;4.05;;;;;;;22.59;100.00;102366.13;5195529;28;20407;-72
2022/07/11 11:22:28;;;;;;;4.10;3.70;;;;;;;22.25;100.00;102374.41;5197033;28;20389;-72
2022/07/11 11:25:00;;;;;;;4.97;3.58;;;;;;;22.34;100.00;102376.03;5195862;28;20026;-72
2022/07/11 11:27:31;;;;;;;6.63;3.53;;;;;;;22.34;100.00;102372.53;5195335;28;20019;-72
2022/07/11 11:30:05;;;;;;;3.60;3.00;;;;;;;22.53;100.00;102363.28;5196937;28;20026;-72
2022/07/11 11:32:36;;;;;;;4.18;3.78;;;;;;;22.54;100.00;102364.94;5195718;28;20054;-72
2022/07/11 11:35:08;;;;;;;5.17;3.50;;;;;;;22.70;100.00;102372.09;5196057;28;20022;-72
2022/07/11 11:37:40;;;;;;;4.65;3.47;;;;;;;22.75;100.00;102367.06;5195891;28;20490;-72
2022/07/11 11:40:12;;;;;;;4.10;3.50;;;;;;;22.94;100.00;102365.84;5197233;28;20030;-72
2022/07/11 11:42:44;;;;;;;6.30;4.22;;;;;;;23.00;100.00;102360.63;5195846;28;20752;-72
2022/07/11 11:45:17;;;;;;;5.57;4.22;;;;;;;23.23;100.00;102366.00;5196342;28;20041;-72
2022/07/11 11:47:49;;;;;;;8.63;4.07;;;;;;;23.44;100.00;102364.53;5196106;28;20038;-72